createdAt,value
2018-11-26T00:01:04.304Z,88.89
2018-11-26T00:07:09.137Z,87.79
2018-11-26T00:13:14.010Z,87.77
2018-11-26T00:19:18.634Z,86.73
2018-11-26T00:25:23.304Z,87.11
2018-11-26T00:31:28.344Z,85.70
2018-11-26T00:37:32.940Z,84.66
2018-11-26T00:43:37.598Z,85.10
2018-11-26T00:49:42.215Z,85.32
2018-11-26T00:55:46.813Z,84.47
2018-11-26T01:01:52.110Z,84.87
2018-11-26T01:07:56.683Z,85.44
2018-11-26T01:14:01.580Z,85.95
2018-11-26T01:20:06.845Z,85.58
2018-11-26T01:26:11.781Z,85.08
2018-11-26T01:32:16.380Z,83.71
2018-11-26T01:38:21.032Z,84.10
2018-11-26T01:44:25.666Z,84.10
2018-11-26T01:50:30.303Z,85.21
2018-11-26T01:56:34.920Z,85.02
2018-11-26T02:02:39.520Z,85.39
2018-11-26T02:08:44.951Z,85.55
2018-11-26T02:14:49.545Z,86.08
2018-11-26T02:20:54.206Z,85.88
2018-11-26T02:26:59.440Z,86.05
2018-11-26T02:33:04.159Z,86.13
2018-11-26T02:39:08.996Z,85.78
2018-11-26T02:45:13.659Z,85.93
2018-11-26T02:51:18.689Z,86.24
2018-11-26T02:57:23.274Z,86.45
2018-11-26T03:03:27.903Z,86.92
2018-11-26T03:09:32.877Z,85.83
2018-11-26T03:15:37.485Z,86.94
2018-11-26T03:21:42.071Z,86.83
2018-11-26T03:27:46.715Z,86.71
2018-11-26T03:33:51.652Z,86.83
2018-11-26T03:39:56.267Z,86.33
2018-11-26T03:46:00.868Z,86.49
2018-11-26T03:52:05.717Z,86.67
2018-11-26T03:58:10.328Z,86.35
2018-11-26T04:04:14.990Z,86.67
2018-11-26T04:10:19.884Z,86.78
2018-11-26T04:16:25.075Z,86.44
2018-11-26T04:22:29.677Z,87.23
2018-11-26T04:28:34.336Z,87.69
2018-11-26T04:34:38.961Z,87.57
2018-11-26T04:40:44.053Z,87.18
2018-11-26T04:46:49.189Z,87.09
2018-11-26T04:52:54.198Z,87.38
2018-11-26T04:58:59.150Z,87.41
2018-11-26T05:05:04.113Z,86.95
2018-11-26T05:11:09.083Z,86.70
2018-11-26T05:17:14.072Z,86.85
2018-11-26T05:23:19.243Z,86.40
2018-11-26T05:29:24.269Z,86.25
2018-11-26T05:35:29.247Z,86.02
2018-11-26T05:41:34.251Z,85.71
2018-11-26T05:47:39.237Z,85.86
2018-11-26T05:53:44.202Z,85.08
2018-11-26T05:59:49.098Z,83.53
2018-11-26T06:05:54.074Z,83.52
2018-11-26T06:11:58.980Z,83.36
2018-11-26T06:18:03.969Z,83.03
2018-11-26T06:24:08.759Z,83.88
2018-11-26T06:30:15.101Z,82.82
2018-11-26T06:36:20.033Z,83.20
2018-11-26T06:42:24.729Z,82.95
2018-11-26T06:48:29.334Z,81.11
2018-11-26T06:54:34.879Z,80.99
2018-11-26T07:00:39.757Z,80.50
2018-11-26T07:06:44.549Z,81.33
2018-11-26T07:12:49.103Z,79.73
2018-11-26T07:18:53.693Z,80.05
2018-11-26T07:24:58.278Z,80.12
2018-11-26T07:31:03.577Z,79.57
2018-11-26T07:37:13.138Z,79.92
2018-11-26T07:43:17.943Z,79.41
2018-11-26T07:49:23.414Z,79.37
2018-11-26T07:55:27.119Z,79.61
2018-11-26T08:01:31.695Z,79.37
2018-11-26T08:07:36.995Z,79.23
2018-11-26T08:13:41.955Z,79.66
2018-11-26T08:19:47.205Z,80.30
2018-11-26T08:25:53.891Z,80.86
2018-11-26T08:31:58.793Z,81.57
2018-11-26T08:38:08.010Z,80.85
2018-11-26T08:44:12.981Z,80.82
2018-11-26T08:50:17.964Z,80.80
2018-11-26T08:56:22.853Z,80.30
2018-11-26T09:02:33.402Z,80.54
2018-11-26T09:08:38.963Z,79.94
2018-11-26T09:14:45.047Z,78.58
2018-11-26T09:20:50.304Z,78.39
2018-11-26T09:26:55.261Z,78.37
2018-11-26T09:33:00.213Z,77.76
2018-11-26T09:39:12.331Z,78.44
2018-11-26T09:45:19.001Z,76.53
2018-11-26T09:51:23.670Z,76.07
2018-11-26T09:57:28.259Z,76.85
2018-11-26T10:03:32.804Z,75.22
2018-11-26T10:09:37.386Z,74.78
2018-11-26T10:15:42.245Z,75.58
2018-11-26T10:21:47.213Z,75.94
2018-11-26T10:27:51.818Z,75.10
2018-11-26T10:33:56.471Z,75.60
2018-11-26T10:40:01.039Z,75.44
2018-11-26T10:46:06.314Z,76.19
2018-11-26T10:52:10.876Z,76.68
2018-11-26T10:58:15.435Z,76.78
2018-11-26T11:04:20.363Z,77.87
2018-11-26T11:12:57.466Z,77.77
2018-11-26T11:19:02.183Z,77.23
2018-11-26T11:25:08.449Z,76.98
2018-11-26T11:31:13.124Z,77.80
2018-11-26T11:37:18.052Z,76.95
2018-11-26T11:43:22.793Z,77.77
2018-11-26T11:49:27.496Z,78.19
2018-11-26T11:55:32.467Z,78.08
2018-11-26T12:01:37.236Z,76.35
2018-11-26T12:07:41.885Z,76.83
2018-11-26T12:13:46.545Z,75.91
2018-11-26T12:19:51.872Z,75.88
2018-11-26T12:25:57.196Z,75.41
2018-11-26T12:32:01.926Z,75.15
2018-11-26T12:38:06.611Z,75.53
2018-11-26T12:44:11.342Z,75.18
2018-11-26T12:50:16.026Z,75.29
2018-11-26T12:56:20.824Z,75.46
2018-11-26T13:02:25.442Z,75.40
2018-11-26T13:08:30.209Z,74.48
2018-11-26T13:14:34.958Z,73.97
2018-11-26T13:20:39.645Z,72.98
2018-11-26T13:26:44.369Z,73.64
2018-11-26T13:32:51.062Z,72.64
2018-11-26T13:38:56.021Z,73.03
2018-11-26T13:45:00.738Z,72.69
2018-11-26T13:51:06.092Z,73.33
2018-11-26T13:57:10.712Z,73.71
2018-11-26T14:03:15.436Z,74.49
2018-11-26T14:09:20.816Z,74.81
2018-11-26T14:15:25.898Z,74.26
2018-11-26T14:21:30.579Z,75.51
2018-11-26T14:27:35.605Z,75.88
2018-11-26T14:33:40.308Z,76.47
2018-11-26T14:39:44.952Z,76.68
2018-11-26T14:45:49.627Z,77.44
2018-11-26T14:51:54.320Z,77.38
2018-11-26T14:57:59.022Z,78.45
2018-11-26T15:04:03.726Z,78.79
2018-11-26T15:10:17.713Z,80.05
2018-11-26T15:16:23.196Z,79.79
2018-11-26T15:22:28.198Z,80.30
2018-11-26T15:28:33.493Z,81.16
2018-11-26T15:34:38.180Z,82.07
2018-11-26T15:40:43.643Z,81.60
2018-11-26T15:46:48.878Z,81.84
2018-11-26T15:52:53.679Z,82.74
2018-11-26T15:58:58.410Z,83.31
2018-11-26T16:05:03.108Z,83.99
2018-11-26T16:11:07.924Z,83.48
2018-11-26T16:17:12.548Z,84.13
2018-11-26T16:23:17.254Z,83.46
2018-11-26T16:29:21.956Z,83.49
2018-11-26T16:35:30.811Z,83.32
2018-11-26T16:41:36.142Z,83.09
2018-11-26T16:47:40.892Z,82.69
2018-11-26T16:53:46.247Z,83.12
2018-11-26T16:59:50.887Z,82.93
2018-11-26T17:05:56.279Z,83.27
2018-11-26T17:12:01.875Z,82.32
2018-11-26T17:18:08.221Z,83.15
2018-11-26T17:24:12.874Z,83.77
2018-11-26T17:30:25.986Z,83.69
2018-11-26T17:36:31.320Z,83.25
2018-11-26T17:42:35.969Z,82.95
2018-11-26T17:48:41.209Z,82.67
2018-11-26T17:54:45.861Z,82.35
2018-11-26T18:01:28.029Z,82.22
2018-11-26T18:07:32.689Z,80.92
2018-11-26T18:13:37.343Z,81.07
2018-11-26T18:19:42.043Z,80.66
2018-11-26T18:25:47.551Z,80.44
2018-11-26T18:31:52.539Z,80.51
2018-11-26T18:37:57.204Z,81.16
2018-11-26T18:44:01.991Z,81.11
2018-11-26T18:50:10.990Z,81.18
2018-11-26T18:56:15.672Z,80.34
2018-11-26T19:02:20.375Z,80.58
2018-11-26T19:08:25.707Z,80.64
2018-11-26T19:14:30.527Z,80.80
2018-11-26T19:20:35.622Z,80.97
2018-11-26T19:26:41.180Z,81.66
2018-11-26T19:32:46.879Z,82.33
2018-11-26T19:38:51.591Z,83.02
2018-11-26T19:44:56.390Z,82.85
2018-11-26T19:51:01.554Z,82.67
2018-11-26T19:57:06.972Z,83.16
2018-11-26T20:04:24.597Z,83.08
2018-11-26T20:10:29.822Z,83.45
2018-11-26T20:16:40.420Z,83.42
2018-11-26T20:22:45.129Z,83.44
2018-11-26T20:28:50.308Z,82.72
2018-11-26T20:34:54.966Z,82.56
2018-11-26T20:40:59.726Z,82.42
2018-11-26T20:47:04.483Z,82.14
2018-11-26T20:53:10.428Z,81.64
2018-11-26T20:59:15.458Z,81.06
2018-11-26T21:05:21.469Z,81.54
2018-11-26T21:11:27.078Z,81.81
2018-11-26T21:17:33.096Z,80.46
2018-11-26T21:23:38.486Z,79.75
2018-11-26T21:29:44.472Z,79.04
2018-11-26T21:35:49.842Z,78.84
2018-11-26T21:41:55.289Z,79.46
2018-11-26T21:48:00.583Z,79.40
2018-11-26T21:54:06.592Z,78.90
2018-11-26T22:00:24.463Z,79.15
2018-11-26T22:06:30.115Z,80.02
2018-11-26T22:12:35.395Z,79.48
2018-11-26T22:18:40.732Z,80.09
2018-11-26T22:24:46.107Z,79.81
2018-11-26T22:30:51.447Z,81.02
2018-11-26T22:36:56.843Z,81.06
2018-11-26T22:43:01.590Z,81.21
2018-11-26T22:49:06.682Z,80.71
2018-11-26T22:55:14.121Z,80.45
2018-11-26T23:01:19.143Z,81.48
2018-11-26T23:07:24.387Z,81.43
2018-11-26T23:13:29.076Z,81.52
2018-11-26T23:19:34.424Z,81.56
2018-11-26T23:25:39.475Z,81.94
2018-11-26T23:31:44.703Z,82.05
2018-11-26T23:37:49.501Z,82.24
2018-11-26T23:43:54.458Z,83.14
2018-11-26T23:49:59.168Z,83.25
2018-11-26T23:56:04.682Z,82.94
